Thursday, October 23, 2014
04:35 UTC
  |  Log In   |  Register Free
Airport Search:

Hobart Regional Airport
(KHBR)

Hobart Regional Airport Diagram
No Airport Diagram Available

FAA data valid effective September 18, 2014 - November 13, 2014 (unless otherwise noted).

 
 
 
 
 
 
 
 
 
 
 
 
 
 

Current Aviation Weather for Hobart Regional Airport (KHBR)

The most recent METAR observation for KHBR was updated at: 0411
METAR Summary (Translated METAR)
KHBR
230353Z AUTO 07003KT 3SM BR OVC070 16/16 A3013 RMK AO2 SLP190 T01610161
KCSM
230353Z 17006KT 7SM FEW100 16/14 A3013 RMK AO2 SLP191 T01560139
(22.2 nm NW from KHBR)
KAXS
230355Z AUTO 12003KT 7SM SCT070 17/15 A3014 RMK AO2 T01650147
(22.5 nm SW from KHBR)
TAF Summary (Translated TAF)
KHBR
221735Z 2218/2318 18014G20KT P6SM SCT030 OVC120 TEMPO 2222/2302 5SM -SHRA OVC025 FM230200 17011KT P6SM BKN030
KCSM
(22.2 nm NW from KHBR)
221735Z 2218/2318 18014G20KT P6SM SCT030 OVC120 TEMPO 2221/2301 5SM -SHRA OVC025 FM230100 17011KT P6SM BKN030
  Airport Weather Conditions for KHBR

 Current Weather at HBR
61° F
Fog/Mist
East winds at 3.5 mph
HBR NOAA Radar

Pressure: 30.13 in
Humidity: 100%
Wind: East at 3.5 MPH (3 KT)
Dew Point: 61.0°F
Visibility: 3.00 mi


Airport Weather Forecast for KHBR

Translated METAR and TAF for KHBR
Translated METAR for KHBR (0430 UTC 23 October 2014)
found at http://aviationweather.gov/adds/metars/
 
METAR text: KHBR 230353Z AUTO 07003KT 3SM BR OVC070 16/16 A3013 RMK AO2 SLP190 T01610161
Conditions at: KHBR (HOBART , OK, US) observed 0353 UTC 23 October 2014
Temperature: 16.1°C (61°F)
Dewpoint: 16.1°C (61°F) [RH = 100%]
Pressure (altimeter): 30.13 inches Hg (1020.4 mb)
[Sea-level pressure: 1019.0 mb]
Winds: from the ENE (70 degrees) at 3 MPH (3 knots; 1.6 m/s)
Visibility: 3 miles (5 km)
Ceiling: 7000 feet AGL
Clouds: overcast cloud deck at 7000 feet AGL
Weather: BR  (mist)
Translated TAF for KHBR
Forecast for: KHBR (HOBART , OK, US)
TAF Text: KHBR 222320Z 2300/2324 18008KT P6SM OVC060
Forecast period: 0000 to 1700 UTC 23 October 2014
Forecast type: FROM: standard forecast or significant change
Winds: from the S (180 degrees) at 9 MPH (8 knots; 4.2 m/s)
Visibility: 6 or more miles (10+ km)
Ceiling: 6000 feet AGL
Clouds: overcast cloud deck at 6000 feet AGL
Weather: no significant weather forecast for this period
TAF Text: TEMPO 2300/2303 VRB15KT 3SM -SHRA OVC040
Forecast period: 0000 to 0300 UTC 23 October 2014
Forecast type: TEMPORARY: The following changes expected for less than half the time period
Winds: variable direction winds at 17 MPH (15 knots; 7.8 m/s)
Visibility: 3 miles (5 km)
Ceiling: 4000 feet AGL
Clouds: overcast cloud deck at 4000 feet AGL
Weather: -SHRA  (light rain showers)
TAF Text: FM231700 20011KT P6SM SCT060
Forecast period: 1700 UTC 23 October 2014 to 0000 UTC 24 October 2014
Forecast type: FROM: standard forecast or significant change
Winds: from the SSW (200 degrees) at 13 MPH (11 knots; 5.7 m/s)
Visibility: 6 or more miles (10+ km)
Clouds: scattered clouds at 6000 feet AGL
Weather: no significant weather forecast for this period

Find All Airport Services Find A Hotel Find A Rental Car Find A Golf Course Find A Restaurant $100 Hamburger



FBO's on the Field
FBO Company Facility Photos Services Transportation Aviation Fuel Prices: Prices include tax
Catering Weather Repair Courtesy Rental Type 100LL JetA JetA+ MOGAS 8087
 
City of Hobart

Currently rated 2.8 by 1 person
FS: Phillips 66
Last Updated: Oct-14
Login to update fuel prices
SS:
Contact City of HobartMore FBO Information
 
Add another FBO Facility Photos Catering Weather Repair Courtesy Rental Type 100LL JetA JetA+ MOGAS 8087
Services Transportation Aviation Fuel Prices: Prices include tax


model-print
model-print
model-print
model-print